createdAt,value
2023-04-15T00:01:41.182Z,10.82
2023-04-15T00:04:08.133Z,9.63
2023-04-15T00:06:36.943Z,12.07
2023-04-15T00:09:03.940Z,9.52
2023-04-15T00:11:30.982Z,13.70
2023-04-15T00:13:58.562Z,12.85
2023-04-15T00:16:25.596Z,9.88
2023-04-15T00:18:52.460Z,9.07
2023-04-15T00:21:19.325Z,9.30
2023-04-15T00:23:49.726Z,9.65
2023-04-15T00:26:16.618Z,10.18
2023-04-15T00:28:44.666Z,8.90
2023-04-15T00:31:11.561Z,7.97
2023-04-15T00:33:38.475Z,11.13
2023-04-15T00:36:07.168Z,10.43
2023-04-15T00:38:33.964Z,11.23
2023-04-15T00:41:00.953Z,10.23
2023-04-15T00:43:27.770Z,7.57
2023-04-15T00:45:55.925Z,8.60
2023-04-15T00:48:23.051Z,8.57
2023-04-15T00:50:50.011Z,8.38
2023-04-15T00:53:16.869Z,8.18
2023-04-15T00:55:43.795Z,9.75
2023-04-15T00:58:11.021Z,9.90
2023-04-15T01:00:37.911Z,8.07
2023-04-15T01:03:05.284Z,8.48
2023-04-15T01:05:32.381Z,9.30
2023-04-15T01:07:59.407Z,10.35
2023-04-15T01:10:26.267Z,11.55
2023-04-15T01:12:53.030Z,9.20
2023-04-15T01:15:21.300Z,9.05
2023-04-15T01:17:48.821Z,10.63
2023-04-15T01:20:16.609Z,8.70
2023-04-15T01:22:43.475Z,10.00
2023-04-15T01:25:16.931Z,9.57
2023-04-15T01:27:44.064Z,10.73
2023-04-15T01:30:11.509Z,12.63
2023-04-15T01:32:38.555Z,10.63
2023-04-15T01:35:05.873Z,8.73
2023-04-15T01:37:33.047Z,9.70
2023-04-15T01:39:59.856Z,10.10
2023-04-15T01:42:27.746Z,10.43
2023-04-15T01:44:54.817Z,10.68
2023-04-15T01:47:21.815Z,10.18
2023-04-15T01:49:48.797Z,11.00
2023-04-15T01:52:15.746Z,9.40
2023-04-15T01:54:42.629Z,10.60
2023-04-15T01:57:09.836Z,10.65
2023-04-15T01:59:37.220Z,11.90
2023-04-15T02:02:04.690Z,10.93
2023-04-15T02:04:31.704Z,9.27
2023-04-15T02:07:00.881Z,7.90
2023-04-15T02:09:27.973Z,11.15
2023-04-15T02:11:54.818Z,10.48
2023-04-15T02:14:22.128Z,8.88
2023-04-15T02:16:49.093Z,10.43
2023-04-15T02:19:16.414Z,11.18
2023-04-15T02:21:43.263Z,10.18
2023-04-15T02:24:10.258Z,9.63
2023-04-15T02:26:37.053Z,9.02
2023-04-15T02:29:04.179Z,10.40
2023-04-15T02:31:34.091Z,9.73
2023-04-15T02:34:02.992Z,9.45
2023-04-15T02:36:31.515Z,9.18
2023-04-15T02:38:58.866Z,9.75
2023-04-15T02:41:28.424Z,10.02
2023-04-15T02:43:55.509Z,10.57
2023-04-15T02:46:23.046Z,10.65
2023-04-15T02:48:50.947Z,9.93
2023-04-15T02:51:19.963Z,8.57
2023-04-15T02:53:48.537Z,11.88
2023-04-15T02:56:17.016Z,9.02
2023-04-15T02:58:45.594Z,11.38
2023-04-15T03:01:12.770Z,10.07
2023-04-15T03:03:41.032Z,10.13
2023-04-15T03:06:08.924Z,9.57
2023-04-15T03:08:36.437Z,6.90
2023-04-15T03:11:03.741Z,9.20
2023-04-15T03:13:31.138Z,9.30
2023-04-15T03:16:00.812Z,8.98
2023-04-15T03:18:29.782Z,9.85
2023-04-15T03:23:28.599Z,7.57
2023-04-15T03:25:57.965Z,8.60
2023-04-15T03:28:25.977Z,10.65
2023-04-15T03:30:55.849Z,8.93
2023-04-15T03:33:22.825Z,9.77
2023-04-15T03:35:51.537Z,7.35
2023-04-15T03:38:18.715Z,9.20
2023-04-15T03:40:47.829Z,10.13
2023-04-15T03:43:14.875Z,9.00
2023-04-15T03:45:41.776Z,10.13
2023-04-15T03:48:17.311Z,7.05
2023-04-15T03:50:44.622Z,9.85
2023-04-15T03:53:11.414Z,9.93
2023-04-15T03:55:38.289Z,9.45
2023-04-15T03:58:05.132Z,12.85
2023-04-15T04:00:32.120Z,11.20
2023-04-15T04:02:59.131Z,10.63
2023-04-15T04:05:26.298Z,9.77
2023-04-15T04:07:53.062Z,10.68
2023-04-15T04:10:20.093Z,10.63
2023-04-15T04:12:47.023Z,8.65
2023-04-15T04:15:13.853Z,9.45
2023-04-15T04:17:40.796Z,8.85
2023-04-15T04:20:08.557Z,9.93
2023-04-15T04:22:41.689Z,10.85
2023-04-15T04:25:10.263Z,10.70
2023-04-15T04:27:37.482Z,9.43
2023-04-15T04:30:06.809Z,8.88
2023-04-15T04:32:33.726Z,11.43
2023-04-15T04:35:00.924Z,10.07
2023-04-15T04:37:27.663Z,8.57
2023-04-15T04:39:54.497Z,11.77
2023-04-15T04:42:21.783Z,10.88
2023-04-15T04:44:48.609Z,9.15
2023-04-15T04:47:15.472Z,8.85
2023-04-15T04:49:42.319Z,10.25
2023-04-15T04:52:09.064Z,9.32
2023-04-15T04:54:36.238Z,15.35
2023-04-15T04:57:03.126Z,10.73
2023-04-15T04:59:30.038Z,9.65
2023-04-15T05:01:57.096Z,8.05
2023-04-15T05:04:24.123Z,10.50
2023-04-15T05:06:50.929Z,10.15
2023-04-15T05:09:18.018Z,12.35
2023-04-15T05:11:44.776Z,11.23
2023-04-15T05:14:11.882Z,10.20
2023-04-15T05:16:38.760Z,11.52
2023-04-15T05:19:05.603Z,13.93
2023-04-15T05:21:32.515Z,11.65
2023-04-15T05:23:59.443Z,9.80
2023-04-15T05:26:27.491Z,11.48
2023-04-15T05:28:54.992Z,12.38
2023-04-15T05:31:21.827Z,11.13
2023-04-15T05:33:48.789Z,8.70
2023-04-15T05:36:15.730Z,9.75
2023-04-15T05:38:42.606Z,10.40
2023-04-15T05:41:09.608Z,8.50
2023-04-15T05:43:36.577Z,13.30
2023-04-15T05:46:03.460Z,9.48
2023-04-15T05:48:30.503Z,10.10
2023-04-15T05:50:57.278Z,10.95
2023-04-15T05:53:24.239Z,11.20
2023-04-15T05:55:51.007Z,10.57
2023-04-15T05:58:17.832Z,10.85
2023-04-15T06:00:45.641Z,10.85
2023-04-15T06:03:12.578Z,11.57
2023-04-15T06:05:39.497Z,8.93
2023-04-15T06:08:06.550Z,8.55
2023-04-15T06:10:36.517Z,8.85
2023-04-15T06:13:04.170Z,8.55
2023-04-15T06:15:31.733Z,8.98
2023-04-15T06:17:58.675Z,11.27
2023-04-15T06:20:25.585Z,9.35
2023-04-15T06:22:52.525Z,10.05
2023-04-15T06:25:19.859Z,7.75
2023-04-15T06:27:46.725Z,9.65
2023-04-15T06:30:13.592Z,7.55
2023-04-15T06:32:40.895Z,8.93
2023-04-15T06:35:08.037Z,8.98
2023-04-15T06:37:34.882Z,9.00
2023-04-15T06:40:01.678Z,9.32
2023-04-15T06:42:28.657Z,7.80
2023-04-15T06:44:55.656Z,8.27
2023-04-15T06:47:22.757Z,7.95
2023-04-15T06:49:49.571Z,6.72
2023-04-15T06:52:17.046Z,8.60
2023-04-15T06:54:43.849Z,8.15
2023-04-15T06:57:10.739Z,7.43
2023-04-15T06:59:37.512Z,6.28
2023-04-15T07:02:04.836Z,7.53
2023-04-15T07:04:32.856Z,11.95
2023-04-15T07:07:02.492Z,9.23
2023-04-15T07:09:29.717Z,7.88
2023-04-15T07:11:56.621Z,6.40
2023-04-15T07:14:23.490Z,9.02
2023-04-15T07:16:50.593Z,6.85
2023-04-15T07:19:17.425Z,9.88
2023-04-15T07:21:44.312Z,8.45
2023-04-15T07:24:11.109Z,9.55
2023-04-15T07:26:37.894Z,7.45
2023-04-15T07:29:04.689Z,9.75
2023-04-15T07:31:31.791Z,8.50
2023-04-15T07:33:58.713Z,8.00
2023-04-15T07:36:25.967Z,8.25
2023-04-15T07:38:52.726Z,9.82
2023-04-15T07:41:20.435Z,12.05
2023-04-15T07:43:48.438Z,17.33
2023-04-15T07:46:16.121Z,12.90
2023-04-15T07:48:43.186Z,8.05
2023-04-15T07:51:10.869Z,11.07
2023-04-15T07:53:38.107Z,9.23
2023-04-15T07:56:05.613Z,8.60
2023-04-15T07:58:32.429Z,11.40
2023-04-15T08:00:59.502Z,6.90
2023-04-15T08:03:26.706Z,9.77
2023-04-15T08:05:54.417Z,11.40
2023-04-15T08:08:21.230Z,10.05
2023-04-15T08:10:49.286Z,9.15
2023-04-15T08:13:17.129Z,8.15
2023-04-15T08:15:44.215Z,9.43
2023-04-15T08:18:11.279Z,14.75
2023-04-15T08:20:38.453Z,10.93
2023-04-15T08:23:05.242Z,10.18
2023-04-15T08:25:32.171Z,6.75
2023-04-15T08:27:59.127Z,10.50
2023-04-15T08:30:26.027Z,12.10
2023-04-15T08:32:52.920Z,9.27
2023-04-15T08:35:19.866Z,11.88
2023-04-15T08:37:46.655Z,7.60
2023-04-15T08:40:13.669Z,9.43
2023-04-15T08:42:48.979Z,7.35
2023-04-15T08:45:16.922Z,9.27
2023-04-15T08:47:45.696Z,9.73
2023-04-15T08:50:12.995Z,8.70
2023-04-15T08:52:40.240Z,12.25
2023-04-15T08:55:09.627Z,9.13
2023-04-15T08:57:38.039Z,8.00
2023-04-15T09:00:05.939Z,8.38
2023-04-15T09:02:32.952Z,8.38
2023-04-15T09:04:59.855Z,7.93
2023-04-15T09:07:27.059Z,7.88
2023-04-15T09:09:54.137Z,11.32
2023-04-15T09:12:21.803Z,10.13
2023-04-15T09:14:49.438Z,9.07
2023-04-15T09:17:21.040Z,8.15
2023-04-15T09:19:48.054Z,6.32
2023-04-15T09:22:15.841Z,7.72
2023-04-15T09:24:43.403Z,8.13
2023-04-15T09:27:11.046Z,8.80
2023-04-15T09:29:38.244Z,8.52
2023-04-15T09:32:15.708Z,9.75
2023-04-15T09:34:43.101Z,7.22
2023-04-15T09:37:11.215Z,8.95
2023-04-15T09:39:48.486Z,8.07
2023-04-15T09:42:15.700Z,8.27
2023-04-15T09:44:42.562Z,6.22
2023-04-15T09:47:09.702Z,6.93
2023-04-15T09:49:36.473Z,7.75
2023-04-15T09:52:07.535Z,7.15
2023-04-15T09:54:39.488Z,10.73
2023-04-15T09:57:10.466Z,8.50
2023-04-15T09:59:37.735Z,6.32
2023-04-15T10:02:08.397Z,7.20
2023-04-15T10:04:40.300Z,8.00
2023-04-15T10:09:43.092Z,7.22
2023-04-15T10:12:13.739Z,5.97
2023-04-15T10:14:47.824Z,9.50
2023-04-15T10:17:21.625Z,19.42
2023-04-15T10:19:49.288Z,12.35
2023-04-15T10:22:18.197Z,8.80
2023-04-15T10:24:47.436Z,8.02
2023-04-15T10:27:15.133Z,7.88
2023-04-15T10:29:43.164Z,9.50
2023-04-15T10:32:11.336Z,7.38
2023-04-15T10:34:39.186Z,7.05
2023-04-15T10:37:11.578Z,7.78
2023-04-15T10:39:44.664Z,9.45
2023-04-15T10:42:16.291Z,8.38
2023-04-15T10:44:56.858Z,11.10
2023-04-15T10:47:24.039Z,9.90
2023-04-15T10:50:02.326Z,8.70
2023-04-15T10:52:33.359Z,9.65
2023-04-15T10:57:40.791Z,8.88
2023-04-15T11:00:16.107Z,10.10
2023-04-15T11:02:47.654Z,9.35
2023-04-15T11:05:21.811Z,12.40
2023-04-15T11:07:55.220Z,11.75
2023-04-15T11:10:31.282Z,8.30
2023-04-15T11:13:14.662Z,10.73
2023-04-15T11:15:45.833Z,14.93
2023-04-15T11:18:12.744Z,7.80
2023-04-15T11:20:47.159Z,8.23
2023-04-15T11:23:19.062Z,7.07
2023-04-15T11:25:46.316Z,10.18
2023-04-15T11:28:13.804Z,7.70
2023-04-15T11:30:42.088Z,11.43
2023-04-15T11:33:12.348Z,9.60
2023-04-15T11:35:41.883Z,9.75
2023-04-15T11:38:11.761Z,14.45
2023-04-15T11:40:39.659Z,10.13
2023-04-15T11:43:10.709Z,11.43
2023-04-15T11:45:47.568Z,10.65
2023-04-15T11:48:14.931Z,10.25
2023-04-15T11:50:41.755Z,12.00
2023-04-15T11:53:10.413Z,14.10
2023-04-15T11:55:54.286Z,11.02
2023-04-15T11:58:24.010Z,13.23
2023-04-15T12:00:57.135Z,9.52
2023-04-15T12:03:28.596Z,10.60
2023-04-15T12:06:16.506Z,14.52
2023-04-15T12:08:57.189Z,10.55
2023-04-15T12:11:29.595Z,12.57
2023-04-15T12:14:06.748Z,13.57
2023-04-15T12:16:46.699Z,17.70
2023-04-15T12:19:34.694Z,11.00
2023-04-15T12:22:05.265Z,15.93
2023-04-15T12:24:37.201Z,13.90
2023-04-15T12:27:04.875Z,15.25
2023-04-15T12:29:36.741Z,13.85
2023-04-15T12:32:09.051Z,13.80
2023-04-15T12:34:52.709Z,17.25
2023-04-15T12:37:20.033Z,13.05
2023-04-15T12:39:49.055Z,17.67
2023-04-15T12:42:16.953Z,13.05
2023-04-15T12:44:44.097Z,19.88
2023-04-15T12:47:12.256Z,14.60
2023-04-15T12:49:50.237Z,14.82
2023-04-15T12:52:21.288Z,12.55
2023-04-15T12:54:49.737Z,15.75
2023-04-15T12:57:20.768Z,19.88
2023-04-15T12:59:56.398Z,15.70
2023-04-15T13:02:39.714Z,13.23
2023-04-15T13:05:10.853Z,16.93
2023-04-15T13:07:39.004Z,12.40
2023-04-15T13:10:06.330Z,12.93
2023-04-15T13:12:40.333Z,19.38
2023-04-15T13:15:09.464Z,18.52
2023-04-15T13:17:38.564Z,25.75
2023-04-15T13:20:05.915Z,29.60
2023-04-15T13:22:40.881Z,23.13
2023-04-15T13:25:08.571Z,18.35
2023-04-15T13:27:35.385Z,17.02
2023-04-15T13:30:02.204Z,15.80
2023-04-15T13:32:28.953Z,19.92
2023-04-15T13:34:56.195Z,19.73
2023-04-15T13:37:30.155Z,15.98
2023-04-15T13:39:57.089Z,17.70
2023-04-15T13:42:24.425Z,14.23
2023-04-15T13:44:51.671Z,17.85
2023-04-15T13:47:20.012Z,21.08
2023-04-15T13:49:46.959Z,22.50
2023-04-15T13:52:14.325Z,17.85
2023-04-15T13:54:41.198Z,17.20
2023-04-15T13:57:08.159Z,13.60
2023-04-15T13:59:35.444Z,12.70
2023-04-15T14:02:02.606Z,16.65
2023-04-15T14:04:30.621Z,19.73
2023-04-15T14:06:59.808Z,15.10
2023-04-15T14:09:28.102Z,14.55
2023-04-15T14:11:54.944Z,14.07
2023-04-15T14:14:21.845Z,15.30
2023-04-15T14:16:48.736Z,13.40
2023-04-15T14:19:15.831Z,17.60
2023-04-15T14:21:42.656Z,16.08
2023-04-15T14:24:09.734Z,14.57
2023-04-15T14:26:36.493Z,18.65
2023-04-15T14:29:03.715Z,17.25
2023-04-15T14:31:30.580Z,11.60
2023-04-15T14:33:57.399Z,15.57
2023-04-15T14:36:24.332Z,17.00
2023-04-15T14:38:51.169Z,15.02
2023-04-15T14:41:17.954Z,12.23
2023-04-15T14:43:44.860Z,15.75
2023-04-15T14:46:11.713Z,16.50
2023-04-15T14:48:38.638Z,14.05
2023-04-15T14:51:05.939Z,16.75
2023-04-15T14:53:33.108Z,15.10
2023-04-15T14:56:00.177Z,15.18
2023-04-15T14:58:27.395Z,14.15
2023-04-15T15:00:54.560Z,11.52
2023-04-15T15:03:21.788Z,16.98
2023-04-15T15:05:49.024Z,15.27
2023-04-15T15:08:16.087Z,16.73
2023-04-15T15:10:49.537Z,13.48
2023-04-15T15:13:18.346Z,19.83
2023-04-15T15:15:45.731Z,18.25
2023-04-15T15:18:26.917Z,20.45
2023-04-15T15:20:53.838Z,19.02
2023-04-15T15:23:20.582Z,14.65
2023-04-15T15:25:47.759Z,20.42
2023-04-15T15:28:14.672Z,20.55
2023-04-15T15:30:41.585Z,30.30
2023-04-15T15:33:08.450Z,19.58
2023-04-15T15:35:35.382Z,25.73
2023-04-15T15:38:02.445Z,17.40
2023-04-15T15:40:29.430Z,17.40
2023-04-15T15:42:56.254Z,19.15
2023-04-15T15:45:23.061Z,16.15
2023-04-15T15:47:50.028Z,18.15
2023-04-15T15:50:17.141Z,17.85
2023-04-15T15:52:44.134Z,21.40
2023-04-15T15:55:11.219Z,20.10
2023-04-15T15:57:38.034Z,20.98
2023-04-15T16:00:11.918Z,20.83
2023-04-15T16:05:10.281Z,33.80
2023-04-15T16:07:37.223Z,21.10
2023-04-15T16:10:04.328Z,24.65
2023-04-15T16:12:31.897Z,28.27
2023-04-15T16:15:00.021Z,25.98
2023-04-15T16:17:26.980Z,32.45
2023-04-15T16:19:57.430Z,26.83
2023-04-15T16:22:27.686Z,32.35
2023-04-15T16:24:54.556Z,25.88
2023-04-15T16:27:21.516Z,29.38
2023-04-15T16:29:48.383Z,25.48
2023-04-15T16:32:16.608Z,23.63
2023-04-15T16:34:43.640Z,30.02
2023-04-15T16:37:10.625Z,23.77
2023-04-15T16:39:37.694Z,22.92
2023-04-15T16:42:04.575Z,24.55
2023-04-15T16:44:31.451Z,27.75
2023-04-15T16:46:58.318Z,27.75
2023-04-15T16:49:25.199Z,36.70
2023-04-15T16:51:54.562Z,27.38
2023-04-15T16:54:21.529Z,22.35
2023-04-15T16:56:48.460Z,29.48
2023-04-15T16:59:15.423Z,26.60
2023-04-15T17:01:42.282Z,35.47
2023-04-15T17:04:09.148Z,37.65
2023-04-15T17:06:36.298Z,36.92
2023-04-15T17:09:03.422Z,48.30
2023-04-15T17:11:31.283Z,44.75
2023-04-15T17:13:58.264Z,51.75
2023-04-15T17:16:25.866Z,40.67
2023-04-15T17:18:53.140Z,49.30
2023-04-15T17:21:20.104Z,52.63
2023-04-15T17:23:46.913Z,47.08
2023-04-15T17:26:13.986Z,42.00
2023-04-15T17:28:40.782Z,45.38
2023-04-15T17:31:07.785Z,51.92
2023-04-15T17:34:00.115Z,44.72
2023-04-15T17:36:22.918Z,39.33
2023-04-15T17:38:49.921Z,45.13
2023-04-15T17:41:16.695Z,43.78
2023-04-15T17:43:43.527Z,42.95
2023-04-15T17:46:12.040Z,46.05
2023-04-15T17:48:39.121Z,52.35
2023-04-15T17:51:06.418Z,53.08
2023-04-15T17:53:33.337Z,44.92
2023-04-15T17:56:00.289Z,46.40
2023-04-15T17:58:28.190Z,42.33
2023-04-15T18:00:55.380Z,52.60
2023-04-15T18:03:22.285Z,42.63
2023-04-15T18:05:49.241Z,40.67
2023-04-15T18:08:16.124Z,51.85
2023-04-15T18:10:42.898Z,56.97
2023-04-15T18:13:10.008Z,46.08
2023-04-15T18:15:36.909Z,40.85
2023-04-15T18:18:03.991Z,64.97
2023-04-15T18:20:31.238Z,46.47
2023-04-15T18:22:58.193Z,49.78
2023-04-15T18:25:25.314Z,51.85
2023-04-15T18:27:52.342Z,54.38
2023-04-15T18:30:19.306Z,54.90
2023-04-15T18:32:46.434Z,50.65
2023-04-15T18:35:13.483Z,54.47
2023-04-15T18:37:40.291Z,56.15
2023-04-15T18:40:07.868Z,52.53
2023-04-15T18:42:34.801Z,58.75
2023-04-15T18:45:02.124Z,50.92
2023-04-15T18:47:29.072Z,58.00
2023-04-15T18:49:58.068Z,55.15
2023-04-15T18:52:31.217Z,45.60
2023-04-15T18:55:07.472Z,60.58
2023-04-15T18:57:35.008Z,56.65
2023-04-15T19:00:03.588Z,49.60
2023-04-15T19:02:30.645Z,69.30
2023-04-15T19:04:57.622Z,58.15
2023-04-15T19:07:24.815Z,50.97
2023-04-15T19:09:52.778Z,57.05
2023-04-15T19:12:19.618Z,45.90
2023-04-15T19:14:46.475Z,50.33
2023-04-15T19:17:13.554Z,58.50
2023-04-15T19:19:40.387Z,60.70
2023-04-15T19:22:08.129Z,56.25
2023-04-15T19:24:35.469Z,44.78
2023-04-15T19:27:02.586Z,53.95
2023-04-15T19:29:29.480Z,45.78
2023-04-15T19:31:56.405Z,53.35
2023-04-15T19:34:24.866Z,51.75
2023-04-15T19:36:51.761Z,47.67
2023-04-15T19:39:18.931Z,52.22
2023-04-15T19:41:46.160Z,53.47
2023-04-15T19:44:13.576Z,51.35
2023-04-15T19:46:43.613Z,39.20
2023-04-15T19:49:10.857Z,41.33
2023-04-15T19:51:37.733Z,48.55
2023-04-15T19:54:04.525Z,52.78
2023-04-15T19:56:33.664Z,43.88
2023-04-15T19:59:01.860Z,44.05
2023-04-15T20:01:28.995Z,54.70
2023-04-15T20:03:56.197Z,37.08
2023-04-15T20:06:23.419Z,41.42
2023-04-15T20:08:50.290Z,40.72
2023-04-15T20:11:17.111Z,42.53
2023-04-15T20:13:44.208Z,33.80
2023-04-15T20:16:12.266Z,42.25
2023-04-15T20:18:39.160Z,36.80
2023-04-15T20:21:06.027Z,39.53
2023-04-15T20:23:35.336Z,42.25
2023-04-15T20:26:02.274Z,32.30
2023-04-15T20:28:29.061Z,40.88
2023-04-15T20:30:55.985Z,29.13
2023-04-15T20:33:22.847Z,34.95
2023-04-15T20:35:49.695Z,33.50
2023-04-15T20:38:16.604Z,31.58
2023-04-15T20:40:43.548Z,30.48
2023-04-15T20:43:10.477Z,30.88
2023-04-15T20:45:38.237Z,46.70
2023-04-15T20:48:05.972Z,43.53
2023-04-15T20:50:32.931Z,29.00
2023-04-15T20:52:59.953Z,34.58
2023-04-15T20:55:27.950Z,36.17
2023-04-15T20:57:56.922Z,36.95
2023-04-15T21:00:23.868Z,43.65
2023-04-15T21:02:51.331Z,46.63
2023-04-15T21:05:18.328Z,52.60
2023-04-15T21:07:45.406Z,43.08
2023-04-15T21:10:12.213Z,45.40
2023-04-15T21:12:40.828Z,43.95
2023-04-15T21:15:08.498Z,44.05
2023-04-15T21:17:35.496Z,43.38
2023-04-15T21:20:02.956Z,42.90
2023-04-15T21:22:29.950Z,42.00
2023-04-15T21:24:57.004Z,44.28
2023-04-15T21:27:25.600Z,46.15
2023-04-15T21:29:52.726Z,46.13
2023-04-15T21:32:20.451Z,44.22
2023-04-15T21:34:47.433Z,38.10
2023-04-15T21:37:14.278Z,40.58
2023-04-15T21:39:41.220Z,48.05
2023-04-15T21:42:08.092Z,46.17
2023-04-15T21:44:34.941Z,36.65
2023-04-15T21:47:02.339Z,46.35
2023-04-15T21:49:29.589Z,43.78
2023-04-15T21:52:01.046Z,44.40
2023-04-15T21:54:28.469Z,45.45
2023-04-15T21:56:58.100Z,46.88
2023-04-15T21:59:25.127Z,40.42
2023-04-15T22:01:52.050Z,42.80
2023-04-15T22:04:19.159Z,46.55
2023-04-15T22:06:46.907Z,49.30
2023-04-15T22:09:14.481Z,55.15
2023-04-15T22:11:41.678Z,47.05
2023-04-15T22:14:09.190Z,51.40
2023-04-15T22:16:36.327Z,60.55
2023-04-15T22:19:03.242Z,52.25
2023-04-15T22:21:30.426Z,62.53
2023-04-15T22:24:32.285Z,64.78
2023-04-15T22:26:46.527Z,51.92
2023-04-15T22:29:13.724Z,60.67
2023-04-15T22:31:41.024Z,54.47
2023-04-15T22:34:08.618Z,54.25
2023-04-15T22:36:35.783Z,63.00
2023-04-15T22:39:03.216Z,63.25
2023-04-15T22:41:30.860Z,60.90
2023-04-15T22:43:57.631Z,59.70
2023-04-15T22:46:25.071Z,51.15
2023-04-15T22:48:54.024Z,54.55
2023-04-15T22:51:26.899Z,59.90
2023-04-15T22:53:54.907Z,56.63
2023-04-15T22:56:22.841Z,48.85
2023-04-15T22:58:50.187Z,53.70
2023-04-15T23:01:17.882Z,49.33
2023-04-15T23:03:56.110Z,47.10
2023-04-15T23:06:27.102Z,48.33
2023-04-15T23:08:54.015Z,50.00
2023-04-15T23:11:21.085Z,52.88
2023-04-15T23:13:47.909Z,56.72
2023-04-15T23:16:14.821Z,47.55
2023-04-15T23:18:41.613Z,54.25
2023-04-15T23:21:08.703Z,53.95
2023-04-15T23:23:35.448Z,58.70
2023-04-15T23:26:05.127Z,47.72
2023-04-15T23:28:32.176Z,49.65
2023-04-15T23:31:00.656Z,54.70
2023-04-15T23:33:28.016Z,52.33
2023-04-15T23:35:55.534Z,51.05
2023-04-15T23:38:22.349Z,51.95
2023-04-15T23:40:51.032Z,57.58
2023-04-15T23:43:17.913Z,56.22
2023-04-15T23:45:44.734Z,50.03
2023-04-15T23:48:11.492Z,52.80
2023-04-15T23:50:38.428Z,54.60
2023-04-15T23:53:05.501Z,52.25
2023-04-15T23:55:32.314Z,68.97
2023-04-15T23:57:59.167Z,52.05
